Time,TemperatureF,DewpointF,PressureIn,WindDirection,WindDirectionDegrees,WindSpeedMPH,WindSpeedGustMPH,Humidity,HourlyPrecipIn,Conditions,Clouds,dailyrainin,SolarRadiationWatts/m^2,SoftwareType,DateUTC
2013-07-03 00:04:00,52.0,45.0,-100.00,SW,222,3.0,11.0,77,0.00,,,0.03,0.000000,,2013-07-03 07:04:00,
2013-07-03 00:39:00,54.0,44.0,-100.00,West,260,6.0,9.0,69,0.00,,,0.03,0.000000,,2013-07-03 07:39:00,
2013-07-03 00:48:00,54.0,44.0,-100.00,West,260,6.0,9.0,69,0.00,,,0.03,0.000000,,2013-07-03 07:48:00,
2013-07-03 01:00:00,54.0,44.0,-100.00,West,260,6.0,9.0,69,0.00,,,0.03,0.000000,,2013-07-03 08:00:00,
2013-07-03 01:06:00,54.0,44.0,-100.00,West,260,6.0,9.0,69,0.00,,,0.03,0.000000,,2013-07-03 08:06:00,
2013-07-03 01:38:00,50.0,44.0,-100.00,West,264,4.0,11.0,80,0.00,,,0.03,0.000000,,2013-07-03 08:38:00,
2013-07-03 01:46:00,50.0,44.0,-100.00,West,264,4.0,11.0,80,0.00,,,0.03,0.000000,,2013-07-03 08:46:00,
2013-07-03 01:56:00,50.0,44.0,-100.00,West,264,4.0,11.0,80,0.00,,,0.03,0.000000,,2013-07-03 08:56:00,
2013-07-03 02:03:00,50.0,44.0,-100.00,West,264,4.0,11.0,80,0.00,,,0.03,0.000000,,2013-07-03 09:03:00,
2013-07-03 02:47:00,51.0,42.0,-100.00,WSW,254,6.0,12.0,70,0.00,,,0.03,0.000000,,2013-07-03 09:47:00,
2013-07-03 02:57:00,51.0,42.0,-100.00,WSW,254,6.0,12.0,70,0.00,,,0.03,0.000000,,2013-07-03 09:57:00,
2013-07-03 03:04:00,51.0,42.0,-100.00,WSW,254,6.0,12.0,70,0.00,,,0.03,0.000000,,2013-07-03 10:04:00,
2013-07-03 03:37:00,49.0,41.0,-100.00,WSW,249,7.0,11.0,75,0.00,,,0.03,0.000000,,2013-07-03 10:37:00,
2013-07-03 03:46:00,49.0,41.0,-100.00,WSW,249,7.0,11.0,75,0.00,,,0.03,0.000000,,2013-07-03 10:46:00,
2013-07-03 03:56:00,49.0,41.0,-100.00,WSW,249,7.0,11.0,75,0.00,,,0.03,0.000000,,2013-07-03 10:56:00,
2013-07-03 04:05:00,49.0,41.0,-100.00,WSW,249,7.0,11.0,75,0.00,,,0.03,0.000000,,2013-07-03 11:05:00,
2013-07-03 04:57:00,46.0,41.0,-100.00,WSW,239,8.0,12.0,84,0.00,,,0.03,0.000000,,2013-07-03 11:57:00,
2013-07-03 05:06:00,46.0,41.0,-100.00,WSW,239,8.0,12.0,84,0.00,,,0.03,0.000000,,2013-07-03 12:06:00,
2013-07-03 06:37:00,50.0,43.0,-100.00,NE,50,4.0,10.0,78,-99.99,,,0.03,87.000000,,2013-07-03 13:37:00,
2013-07-03 06:48:00,50.0,43.0,-100.00,NE,50,4.0,10.0,78,-99.99,,,0.03,87.000000,,2013-07-03 13:48:00,
2013-07-03 06:55:00,50.0,43.0,-100.00,NE,50,4.0,10.0,78,-99.99,,,0.03,87.000000,,2013-07-03 13:55:00,
2013-07-03 07:06:00,50.0,43.0,-100.00,NE,50,4.0,10.0,78,-99.99,,,0.03,87.000000,,2013-07-03 14:06:00,
2013-07-03 07:38:00,54.0,45.0,-100.00,ENE,72,5.0,8.0,72,0.00,,,0.03,268.000000,,2013-07-03 14:38:00,
2013-07-03 07:47:00,54.0,45.0,-100.00,ENE,72,5.0,8.0,72,0.00,,,0.03,268.000000,,2013-07-03 14:47:00,
2013-07-03 07:55:00,54.0,45.0,-100.00,ENE,72,5.0,8.0,72,0.00,,,0.03,268.000000,,2013-07-03 14:55:00,
2013-07-03 08:05:00,54.0,45.0,-100.00,ENE,72,5.0,8.0,72,0.00,,,0.03,268.000000,,2013-07-03 15:05:00,
2013-07-03 08:38:00,58.0,46.0,-100.00,East,96,6.0,11.0,64,0.00,,,0.03,470.000000,,2013-07-03 15:38:00,
2013-07-03 08:48:00,58.0,46.0,-100.00,East,96,6.0,11.0,64,0.00,,,0.03,470.000000,,2013-07-03 15:48:00,
2013-07-03 08:57:00,58.0,46.0,-100.00,East,96,6.0,11.0,64,0.00,,,0.03,470.000000,,2013-07-03 15:57:00,
2013-07-03 09:06:00,58.0,46.0,-100.00,East,96,6.0,11.0,64,0.00,,,0.03,470.000000,,2013-07-03 16:06:00,
2013-07-03 09:40:00,63.0,48.0,-100.00,ENE,77,7.0,11.0,58,0.00,,,0.03,665.000000,,2013-07-03 16:40:00,
2013-07-03 09:47:00,63.0,48.0,-100.00,ENE,77,7.0,11.0,58,0.00,,,0.03,665.000000,,2013-07-03 16:47:00,
2013-07-03 09:59:00,63.0,48.0,-100.00,ENE,77,7.0,11.0,58,0.00,,,0.03,665.000000,,2013-07-03 16:59:00,
2013-07-03 10:05:00,63.0,48.0,-100.00,ENE,77,7.0,11.0,58,0.00,,,0.03,665.000000,,2013-07-03 17:05:00,
2013-07-03 10:42:00,68.0,46.0,-100.00,East,98,7.0,12.0,46,0.00,,,0.03,836.000000,,2013-07-03 17:42:00,
2013-07-03 10:56:00,68.0,46.0,-100.00,East,98,7.0,12.0,46,0.00,,,0.03,836.000000,,2013-07-03 17:56:00,
2013-07-03 11:05:00,68.0,46.0,-100.00,East,98,7.0,12.0,46,0.00,,,0.03,836.000000,,2013-07-03 18:05:00,
2013-07-03 11:58:00,72.0,44.0,-100.00,East,97,10.0,17.0,37,0.00,,,0.03,956.000000,,2013-07-03 18:58:00,
2013-07-03 12:04:00,72.0,44.0,-100.00,East,97,10.0,17.0,37,0.00,,,0.03,956.000000,,2013-07-03 19:04:00,
2013-07-03 12:38:00,76.0,41.0,-100.00,East,99,12.0,20.0,29,0.00,,,0.03,1005.000000,,2013-07-03 19:38:00,
2013-07-03 12:49:00,76.0,41.0,-100.00,East,99,12.0,20.0,29,0.00,,,0.03,1005.000000,,2013-07-03 19:49:00,
2013-07-03 12:57:00,76.0,41.0,-100.00,East,99,12.0,20.0,29,0.00,,,0.03,1005.000000,,2013-07-03 19:57:00,
2013-07-03 13:03:00,76.0,41.0,-100.00,East,99,12.0,20.0,29,0.00,,,0.03,1005.000000,,2013-07-03 20:03:00,
2013-07-03 13:38:00,77.0,37.0,-100.00,East,95,11.0,19.0,24,0.00,,,0.03,914.000000,,2013-07-03 20:38:00,
2013-07-03 13:46:00,77.0,37.0,-100.00,East,95,11.0,19.0,24,0.00,,,0.03,914.000000,,2013-07-03 20:46:00,
2013-07-03 13:55:00,77.0,37.0,-100.00,East,95,11.0,19.0,24,0.00,,,0.03,914.000000,,2013-07-03 20:55:00,
2013-07-03 14:05:00,77.0,37.0,-100.00,East,95,11.0,19.0,24,0.00,,,0.03,914.000000,,2013-07-03 21:05:00,
2013-07-03 14:37:00,73.0,38.0,-100.00,East,88,11.0,24.0,28,0.00,,,0.03,757.000000,,2013-07-03 21:37:00,
2013-07-03 14:45:00,73.0,38.0,-100.00,East,88,11.0,24.0,28,0.00,,,0.03,757.000000,,2013-07-03 21:45:00,
2013-07-03 14:55:00,73.0,38.0,-100.00,East,88,11.0,24.0,28,0.00,,,0.03,757.000000,,2013-07-03 21:55:00,
2013-07-03 15:03:00,73.0,38.0,-100.00,East,88,11.0,24.0,28,0.00,,,0.03,757.000000,,2013-07-03 22:03:00,
2013-07-03 15:38:00,76.0,41.0,-100.00,East,95,12.0,18.0,28,0.00,,,0.03,772.000000,,2013-07-03 22:38:00,
2013-07-03 15:46:00,76.0,41.0,-100.00,East,95,12.0,18.0,28,0.00,,,0.03,772.000000,,2013-07-03 22:46:00,
2013-07-03 15:56:00,76.0,41.0,-100.00,East,95,12.0,18.0,28,0.00,,,0.03,772.000000,,2013-07-03 22:56:00,
2013-07-03 16:03:00,76.0,41.0,-100.00,East,95,12.0,18.0,28,0.00,,,0.03,772.000000,,2013-07-03 23:03:00,
2013-07-03 16:40:00,71.0,41.0,-100.00,East,90,14.0,21.0,34,0.00,,,0.03,371.000000,,2013-07-03 23:40:00,
2013-07-03 16:45:00,71.0,41.0,-100.00,East,90,14.0,21.0,34,0.00,,,0.03,371.000000,,2013-07-03 23:45:00,
2013-07-03 16:56:00,71.0,41.0,-100.00,East,90,14.0,21.0,34,0.00,,,0.03,371.000000,,2013-07-03 23:56:00,
2013-07-03 17:02:00,71.0,41.0,-100.00,East,90,14.0,21.0,34,0.00,,,0.03,371.000000,,2013-07-04 00:02:00,
2013-07-03 17:50:00,69.0,39.0,-100.00,East,82,12.0,24.0,33,0.00,,,0.03,330.000000,,2013-07-04 00:50:00,
2013-07-03 17:57:00,69.0,39.0,-100.00,East,82,12.0,24.0,33,0.00,,,0.03,330.000000,,2013-07-04 00:57:00,
2013-07-03 18:03:00,69.0,39.0,-100.00,East,82,12.0,24.0,33,0.00,,,0.03,330.000000,,2013-07-04 01:03:00,
2013-07-03 19:49:00,59.0,47.0,-100.00,West,264,9.0,15.0,65,0.01,,,0.02,14.000000,,2013-07-04 02:49:00,
2013-07-03 19:56:00,59.0,47.0,-100.00,West,264,9.0,15.0,65,0.01,,,0.02,14.000000,,2013-07-04 02:56:00,
2013-07-03 20:04:00,59.0,47.0,-100.00,West,264,9.0,15.0,65,0.01,,,0.02,14.000000,,2013-07-04 03:04:00,
2013-07-03 20:36:00,59.0,45.0,-100.00,WNW,282,6.0,15.0,59,0.00,,,0.02,2.000000,,2013-07-04 03:36:00,
2013-07-03 20:46:00,59.0,45.0,-100.00,WNW,282,6.0,15.0,59,0.00,,,0.02,2.000000,,2013-07-04 03:46:00,
2013-07-03 20:57:00,59.0,45.0,-100.00,WNW,282,6.0,15.0,59,0.00,,,0.02,2.000000,,2013-07-04 03:57:00,
2013-07-03 21:02:00,59.0,45.0,-100.00,WNW,282,6.0,15.0,59,0.00,,,0.02,2.000000,,2013-07-04 04:02:00,
2013-07-03 21:33:00,59.0,45.0,-100.00,West,260,4.0,11.0,59,0.00,,,0.02,0.000000,,2013-07-04 04:33:00,
2013-07-03 21:43:00,59.0,45.0,-100.00,West,260,4.0,11.0,59,0.00,,,0.02,0.000000,,2013-07-04 04:43:00,
2013-07-03 21:52:00,59.0,45.0,-100.00,West,260,4.0,11.0,59,0.00,,,0.02,0.000000,,2013-07-04 04:52:00,
2013-07-03 22:01:00,59.0,45.0,-100.00,West,260,4.0,11.0,59,0.00,,,0.02,0.000000,,2013-07-04 05:01:00,
2013-07-03 22:33:00,56.0,45.0,-100.00,NNW,332,4.0,8.0,67,0.00,,,0.02,0.000000,,2013-07-04 05:33:00,
2013-07-03 22:43:00,56.0,45.0,-100.00,NNW,332,4.0,8.0,67,0.00,,,0.02,0.000000,,2013-07-04 05:43:00,
2013-07-03 22:52:00,56.0,45.0,-100.00,NNW,332,4.0,8.0,67,0.00,,,0.02,0.000000,,2013-07-04 05:52:00,
2013-07-03 23:01:00,56.0,45.0,-100.00,NNW,332,4.0,8.0,67,0.00,,,0.02,0.000000,,2013-07-04 06:01:00,
2013-07-03 23:34:00,54.0,43.0,-100.00,NW,307,6.0,9.0,67,0.00,,,0.02,0.000000,,2013-07-04 06:34:00,
2013-07-03 23:43:00,54.0,43.0,-100.00,NW,307,6.0,9.0,67,0.00,,,0.02,0.000000,,2013-07-04 06:43:00,
2013-07-03 23:53:00,54.0,43.0,-100.00,NW,307,6.0,9.0,67,0.00,,,0.02,0.000000,,2013-07-04 06:53:00,